createdAt,value
2022-09-23T00:01:22.446Z,93585.69
2022-09-23T00:03:50.400Z,93585.50
2022-09-23T00:06:21.198Z,93590.09
2022-09-23T00:08:52.151Z,93579.94
2022-09-23T00:11:25.180Z,93580.50
2022-09-23T00:13:58.062Z,93582.13
2022-09-23T00:16:32.783Z,93576.31
2022-09-23T00:19:04.682Z,93575.09
2022-09-23T00:21:32.346Z,93574.91
2022-09-23T00:24:00.575Z,93573.69
2022-09-23T00:26:28.169Z,93569.50
2022-09-23T00:28:55.928Z,93573.06
2022-09-23T00:31:26.188Z,93569.47
2022-09-23T00:34:01.239Z,93564.31
2022-09-23T00:36:30.207Z,93568.31
2022-09-23T00:38:59.343Z,93564.88
2022-09-23T00:41:27.373Z,93563.47
2022-09-23T00:43:57.909Z,93555.41
2022-09-23T00:46:31.313Z,93570.53
2022-09-23T00:49:14.073Z,93573.16
2022-09-23T00:51:50.683Z,93565.78
2022-09-23T00:54:19.014Z,93564.62
2022-09-23T00:56:46.418Z,93570.63
2022-09-23T00:59:14.142Z,93567.06
2022-09-23T01:01:43.472Z,93566.03
2022-09-23T01:04:10.859Z,93567.63
2022-09-23T01:06:38.403Z,93567.44
2022-09-23T01:09:06.080Z,93564.88
2022-09-23T01:11:47.241Z,93570.69
2022-09-23T01:14:27.128Z,93565.63
2022-09-23T01:17:04.089Z,93564.06
2022-09-23T01:19:44.911Z,93561.06
2022-09-23T01:22:19.254Z,93562.00
2022-09-23T01:25:32.111Z,93563.38
2022-09-23T01:28:21.693Z,93571.94
2022-09-23T01:31:17.676Z,93567.72
2022-09-23T01:33:59.481Z,93572.91
2022-09-23T01:36:39.953Z,93573.91
2022-09-23T01:39:35.502Z,93557.59
2022-09-23T01:42:17.143Z,93571.94
2022-09-23T01:44:53.671Z,93567.16
2022-09-23T01:47:36.217Z,93570.22
2022-09-23T01:50:33.254Z,93564.66
2022-09-23T01:53:06.377Z,93561.66
2022-09-23T01:55:48.582Z,93574.47
2022-09-23T01:58:24.770Z,93566.44
2022-09-23T02:01:05.191Z,93566.19
2022-09-23T02:03:49.582Z,93564.88
2022-09-23T02:06:26.007Z,93566.22
2022-09-23T02:09:02.117Z,93563.50
2022-09-23T02:11:36.483Z,93570.22
2022-09-23T02:14:27.082Z,93569.91
2022-09-23T02:16:58.582Z,93563.91
2022-09-23T02:19:41.998Z,93571.81
2022-09-23T02:22:15.714Z,93568.25
2022-09-23T02:24:45.280Z,93565.50
2022-09-23T02:27:39.792Z,93566.78
2022-09-23T02:30:19.252Z,93569.69
2022-09-23T02:32:53.389Z,93572.38
2022-09-23T02:35:33.130Z,93574.56
2022-09-23T02:38:15.687Z,93580.22
2022-09-23T02:41:05.331Z,93575.28
2022-09-23T02:43:35.781Z,93575.44
2022-09-23T02:46:05.133Z,93571.66
2022-09-23T02:48:38.114Z,93578.84
2022-09-23T02:51:06.245Z,93572.50
2022-09-23T02:53:35.017Z,93575.09
2022-09-23T02:56:13.296Z,93579.00
2022-09-23T02:58:41.096Z,93581.34
2022-09-23T03:01:52.410Z,93577.38
2022-09-23T03:04:38.957Z,93581.72
2022-09-23T03:07:11.438Z,93575.75
2022-09-23T03:09:49.231Z,93568.00
2022-09-23T03:12:34.484Z,93576.84
2022-09-23T03:15:14.479Z,93572.09
2022-09-23T03:17:49.334Z,93572.75
2022-09-23T03:20:44.876Z,93575.87
2022-09-23T03:23:15.431Z,93587.19
2022-09-23T03:25:47.507Z,93581.50
2022-09-23T03:28:17.657Z,93581.81
2022-09-23T03:30:47.842Z,93577.78
2022-09-23T03:33:18.121Z,93587.66
2022-09-23T03:36:13.640Z,93583.59
2022-09-23T03:38:46.081Z,93585.13
2022-09-23T03:41:17.770Z,93578.13
2022-09-23T03:43:46.201Z,93578.47
2022-09-23T03:46:18.558Z,93578.66
2022-09-23T03:48:45.935Z,93585.88
2022-09-23T03:51:24.702Z,93574.09
2022-09-23T03:53:52.220Z,93574.47
2022-09-23T03:56:19.882Z,93576.19
2022-09-23T03:58:47.292Z,93582.34
2022-09-23T04:01:16.114Z,93575.72
2022-09-23T04:03:45.943Z,93588.06
2022-09-23T04:06:14.276Z,93591.69
2022-09-23T04:08:42.276Z,93588.25
2022-09-23T04:11:10.552Z,93594.38
2022-09-23T04:13:38.059Z,93592.97
2022-09-23T04:16:06.334Z,93599.13
2022-09-23T04:18:34.397Z,93598.03
2022-09-23T04:21:02.655Z,93603.75
2022-09-23T04:23:30.178Z,93594.62
2022-09-23T04:25:57.973Z,93592.69
2022-09-23T04:28:26.371Z,93601.47
2022-09-23T04:30:55.228Z,93599.88
2022-09-23T04:33:24.664Z,93602.66
2022-09-23T04:35:52.561Z,93601.47
2022-09-23T04:38:19.962Z,93604.44
2022-09-23T04:40:48.693Z,93600.78
2022-09-23T04:43:16.633Z,93608.31
2022-09-23T04:45:44.491Z,93601.09
2022-09-23T04:48:14.100Z,93612.56
2022-09-23T04:50:42.727Z,93603.59
2022-09-23T04:53:10.441Z,93610.62
2022-09-23T04:55:38.155Z,93609.28
2022-09-23T04:58:05.575Z,93611.41
2022-09-23T05:00:33.678Z,93609.28
2022-09-23T05:03:01.471Z,93607.69
2022-09-23T05:05:31.377Z,93609.78
2022-09-23T05:07:58.990Z,93613.41
2022-09-23T05:10:26.717Z,93616.22
2022-09-23T05:12:57.424Z,93620.22
2022-09-23T05:15:25.352Z,93620.22
2022-09-23T05:17:53.604Z,93624.34
2022-09-23T05:20:21.600Z,93633.84
2022-09-23T05:22:48.962Z,93631.22
2022-09-23T05:25:16.953Z,93631.00
2022-09-23T05:27:44.316Z,93643.72
2022-09-23T05:30:11.919Z,93647.28
2022-09-23T05:32:40.549Z,93657.03
2022-09-23T05:35:08.346Z,93644.59
2022-09-23T05:37:35.658Z,93647.81
2022-09-23T05:40:04.407Z,93649.81
2022-09-23T05:42:32.693Z,93658.91
2022-09-23T05:45:00.129Z,93640.41
2022-09-23T05:47:28.221Z,93650.28
2022-09-23T05:50:00.182Z,93645.22
2022-09-23T05:52:29.730Z,93649.56
2022-09-23T05:54:57.114Z,93647.41
2022-09-23T05:57:24.706Z,93641.72
2022-09-23T05:59:53.262Z,93647.81
2022-09-23T06:02:20.667Z,93642.38
2022-09-23T06:04:48.586Z,93645.59
2022-09-23T06:07:16.327Z,93642.38
2022-09-23T06:09:44.237Z,93644.06
2022-09-23T06:12:14.254Z,93641.69
2022-09-23T06:14:42.517Z,93648.81
2022-09-23T06:17:09.830Z,93643.81
2022-09-23T06:19:37.471Z,93636.69
2022-09-23T06:22:05.022Z,93633.47
2022-09-23T06:24:32.417Z,93628.00
2022-09-23T06:27:01.159Z,93630.03
2022-09-23T06:29:31.022Z,93623.47
2022-09-23T06:32:00.152Z,93620.47
2022-09-23T06:34:28.402Z,93616.47
2022-09-23T06:36:55.964Z,93617.47
2022-09-23T06:39:23.556Z,93615.63
2022-09-23T06:41:51.406Z,93619.63
2022-09-23T06:44:19.111Z,93617.81
2022-09-23T06:46:46.553Z,93612.31
2022-09-23T06:49:15.084Z,93616.13
2022-09-23T06:51:43.149Z,93617.78
2022-09-23T06:54:11.308Z,93616.75
2022-09-23T06:56:40.262Z,93624.31
2022-09-23T06:59:11.186Z,93633.38
2022-09-23T07:01:39.380Z,93624.72
2022-09-23T07:04:08.067Z,93631.09
2022-09-23T07:06:35.837Z,93630.09
2022-09-23T07:09:05.797Z,93631.81
2022-09-23T07:11:33.555Z,93635.31
2022-09-23T07:14:01.034Z,93640.91
2022-09-23T07:16:29.099Z,93629.87
2022-09-23T07:18:56.829Z,93645.66
2022-09-23T07:21:24.474Z,93628.31
2022-09-23T07:23:53.786Z,93643.50
2022-09-23T07:26:23.317Z,93639.06
2022-09-23T07:29:04.937Z,93645.00
2022-09-23T07:31:39.615Z,93644.16
2022-09-23T07:34:11.870Z,93648.44
2022-09-23T07:36:41.520Z,93654.88
2022-09-23T07:39:12.720Z,93652.59
2022-09-23T07:41:44.820Z,93638.31
2022-09-23T07:44:13.171Z,93645.97
2022-09-23T07:46:41.318Z,93644.28
2022-09-23T07:49:09.008Z,93635.66
2022-09-23T07:51:38.956Z,93640.69
2022-09-23T07:54:10.087Z,93637.59
2022-09-23T07:56:38.649Z,93645.09
2022-09-23T07:59:09.208Z,93642.09
2022-09-23T08:01:40.249Z,93644.47
2022-09-23T08:04:19.241Z,93642.47
2022-09-23T08:06:54.557Z,93653.72
2022-09-23T08:09:25.709Z,93646.19
2022-09-23T08:11:54.446Z,93654.75
2022-09-23T08:14:25.177Z,93636.47
2022-09-23T08:16:52.958Z,93640.16
2022-09-23T08:19:20.899Z,93632.25
2022-09-23T08:21:52.742Z,93631.31
2022-09-23T08:24:25.177Z,93626.91
2022-09-23T08:26:54.780Z,93632.69
2022-09-23T08:29:24.370Z,93621.66
2022-09-23T08:31:52.825Z,93631.28
2022-09-23T08:34:21.544Z,93634.97
2022-09-23T08:36:49.499Z,93627.75
2022-09-23T08:39:18.863Z,93636.78
2022-09-23T08:41:49.772Z,93631.75
2022-09-23T08:44:24.302Z,93629.09
2022-09-23T08:47:12.119Z,93620.72
2022-09-23T08:49:47.273Z,93613.81
2022-09-23T08:52:27.331Z,93623.53
2022-09-23T08:54:56.061Z,93627.88
2022-09-23T08:57:40.270Z,93621.44
2022-09-23T09:00:17.904Z,93622.22
2022-09-23T09:02:45.920Z,93624.13
2022-09-23T09:05:20.070Z,93621.78
2022-09-23T09:07:47.858Z,93626.75
2022-09-23T09:10:46.880Z,93621.37
2022-09-23T09:13:30.590Z,93614.41
2022-09-23T09:16:48.380Z,93613.00
2022-09-23T09:19:38.892Z,93620.22
2022-09-23T09:22:12.499Z,93626.31
2022-09-23T09:24:40.412Z,93627.41
2022-09-23T09:27:13.202Z,93623.63
2022-09-23T09:29:49.846Z,93625.62
2022-09-23T09:32:29.668Z,93620.75
2022-09-23T09:35:05.795Z,93613.03
2022-09-23T09:37:47.694Z,93614.94
2022-09-23T09:40:20.781Z,93617.34
2022-09-23T09:42:50.461Z,93617.03
2022-09-23T09:45:26.563Z,93610.28
2022-09-23T09:48:06.126Z,93614.06
2022-09-23T09:50:47.607Z,93607.56
2022-09-23T09:53:17.136Z,93603.34
2022-09-23T09:55:46.261Z,93602.88
2022-09-23T09:58:16.592Z,93601.78
2022-09-23T10:00:46.475Z,93605.91
2022-09-23T10:03:14.470Z,93600.44
2022-09-23T10:05:45.593Z,93598.69
2022-09-23T10:08:32.586Z,93601.91
2022-09-23T10:11:03.396Z,93587.66
2022-09-23T10:13:32.118Z,93597.87
2022-09-23T10:16:04.089Z,93600.03
2022-09-23T10:18:48.374Z,93589.97
2022-09-23T10:21:24.190Z,93595.97
2022-09-23T10:24:01.870Z,93588.84
2022-09-23T10:26:55.828Z,93590.44
2022-09-23T10:29:39.101Z,93595.47
2022-09-23T10:32:37.929Z,93594.72
2022-09-23T10:35:13.544Z,93588.66
2022-09-23T10:37:50.516Z,93598.72
2022-09-23T10:40:46.074Z,93593.66
2022-09-23T10:43:41.791Z,93595.94
2022-09-23T10:46:39.256Z,93595.16
2022-09-23T10:49:18.947Z,93588.31
2022-09-23T10:52:00.082Z,93595.78
2022-09-23T10:54:46.911Z,93592.97
2022-09-23T10:57:38.255Z,93578.78
2022-09-23T11:00:12.691Z,93580.12
2022-09-23T11:02:56.346Z,93576.97
2022-09-23T11:06:04.944Z,93576.97
2022-09-23T11:08:42.807Z,93572.72
2022-09-23T11:11:34.304Z,93570.66
2022-09-23T11:14:41.348Z,93558.66
2022-09-23T11:17:12.969Z,93550.91
2022-09-23T11:20:16.201Z,93558.69
2022-09-23T11:23:26.746Z,93553.31
2022-09-23T11:26:19.826Z,93556.47
2022-09-23T11:28:58.869Z,93548.41
2022-09-23T11:31:43.066Z,93555.09
2022-09-23T11:34:35.437Z,93546.69
2022-09-23T11:37:20.504Z,93536.22
2022-09-23T11:40:11.569Z,93541.25
2022-09-23T11:42:55.441Z,93531.63
2022-09-23T11:45:30.888Z,93530.31
2022-09-23T11:48:06.145Z,93524.94
2022-09-23T11:50:59.576Z,93525.69
2022-09-23T11:53:43.355Z,93516.06
2022-09-23T11:56:34.622Z,93514.47
2022-09-23T11:59:31.447Z,93502.84
2022-09-23T12:02:21.411Z,93514.66
2022-09-23T12:05:02.999Z,93506.50
2022-09-23T12:07:46.984Z,93505.66
2022-09-23T12:10:16.195Z,93503.97
2022-09-23T12:12:56.227Z,93493.38
2022-09-23T12:16:10.314Z,93501.84
2022-09-23T12:18:51.886Z,93494.09
2022-09-23T12:21:50.140Z,93494.63
2022-09-23T12:24:35.117Z,93507.75
2022-09-23T12:27:09.324Z,93495.31
2022-09-23T12:29:40.075Z,93482.47
2022-09-23T12:32:13.206Z,93491.19
2022-09-23T12:34:49.201Z,93490.00
2022-09-23T12:37:24.692Z,93493.28
2022-09-23T12:39:52.600Z,93487.72
2022-09-23T12:42:27.689Z,93486.34
2022-09-23T12:45:32.699Z,93487.62
2022-09-23T12:48:24.733Z,93488.25
2022-09-23T12:51:12.830Z,93480.47
2022-09-23T12:53:53.520Z,93478.41
2022-09-23T12:56:25.394Z,93497.44
2022-09-23T12:59:01.450Z,93495.75
2022-09-23T13:01:37.351Z,93495.22
2022-09-23T13:04:24.309Z,93486.56
2022-09-23T13:06:58.961Z,93493.06
2022-09-23T13:09:30.992Z,93481.97
2022-09-23T13:12:02.160Z,93493.47
2022-09-23T13:14:32.988Z,93493.97
2022-09-23T13:17:00.919Z,93497.53
2022-09-23T13:19:28.321Z,93499.03
2022-09-23T13:22:09.336Z,93504.63
2022-09-23T13:24:40.299Z,93506.66
2022-09-23T13:27:23.262Z,93509.75
2022-09-23T13:29:56.641Z,93508.84
2022-09-23T13:32:39.754Z,93499.72
2022-09-23T13:35:20.103Z,93516.97
2022-09-23T13:37:50.010Z,93513.06
2022-09-23T13:40:24.527Z,93508.19
2022-09-23T13:43:05.340Z,93504.75
2022-09-23T13:45:38.355Z,93500.47
2022-09-23T13:48:11.729Z,93499.13
2022-09-23T13:50:41.104Z,93504.41
2022-09-23T13:53:17.576Z,93507.13
2022-09-23T13:55:48.993Z,93509.06
2022-09-23T13:58:22.615Z,93502.53
2022-09-23T14:00:51.175Z,93515.19
2022-09-23T14:03:27.061Z,93516.16
2022-09-23T14:05:56.612Z,93502.94
2022-09-23T14:08:25.364Z,93500.06
2022-09-23T14:10:54.004Z,93505.31
2022-09-23T14:13:28.389Z,93488.03
2022-09-23T14:15:59.734Z,93496.19
2022-09-23T14:18:36.704Z,93495.56
2022-09-23T14:21:05.361Z,93485.72
2022-09-23T14:23:33.193Z,93485.03
2022-09-23T14:26:02.771Z,93482.69
2022-09-23T14:28:30.693Z,93485.25
2022-09-23T14:30:58.686Z,93478.09
2022-09-23T14:33:30.905Z,93478.09
2022-09-23T14:36:44.318Z,93482.97
2022-09-23T14:39:12.810Z,93487.84
2022-09-23T14:41:43.982Z,93478.44
2022-09-23T14:44:25.400Z,93489.78
2022-09-23T14:46:57.472Z,93481.38
2022-09-23T14:49:26.055Z,93482.88
2022-09-23T14:52:04.289Z,93470.66
2022-09-23T14:54:51.077Z,93475.75
2022-09-23T14:57:30.671Z,93474.81
2022-09-23T15:00:08.217Z,93481.12
2022-09-23T15:02:38.389Z,93481.22
2022-09-23T15:05:19.074Z,93492.28
2022-09-23T15:07:52.540Z,93489.00
2022-09-23T15:10:30.452Z,93486.53
2022-09-23T15:13:27.279Z,93484.94
2022-09-23T15:15:55.849Z,93485.59
2022-09-23T15:18:26.752Z,93483.41
2022-09-23T15:20:58.192Z,93485.72
2022-09-23T15:23:44.571Z,93495.53
2022-09-23T15:26:18.915Z,93499.34
2022-09-23T15:28:47.884Z,93497.66
2022-09-23T15:31:19.894Z,93494.31
2022-09-23T15:33:49.283Z,93503.25
2022-09-23T15:36:20.006Z,93507.78
2022-09-23T15:38:48.421Z,93493.22
2022-09-23T15:41:17.570Z,93505.94
2022-09-23T15:43:46.197Z,93503.16
2022-09-23T15:46:22.439Z,93511.47
2022-09-23T15:48:58.974Z,93519.12
2022-09-23T15:51:27.804Z,93519.50
2022-09-23T15:53:56.560Z,93519.22
2022-09-23T15:56:24.976Z,93522.66
2022-09-23T15:58:53.011Z,93528.72
2022-09-23T16:01:20.498Z,93525.22
2022-09-23T16:03:48.168Z,93537.59
2022-09-23T16:06:16.100Z,93533.72
2022-09-23T16:08:43.718Z,93531.03
2022-09-23T16:11:27.086Z,93535.19
2022-09-23T16:13:54.684Z,93539.47
2022-09-23T16:16:22.723Z,93537.06
2022-09-23T16:18:53.255Z,93536.75
2022-09-23T16:21:24.498Z,93538.22
2022-09-23T16:23:53.592Z,93538.72
2022-09-23T16:26:24.481Z,93552.09
2022-09-23T16:28:54.889Z,93535.00
2022-09-23T16:31:25.456Z,93546.88
2022-09-23T16:33:53.905Z,93541.28
2022-09-23T16:36:27.537Z,93549.41
2022-09-23T16:38:56.022Z,93542.91
2022-09-23T16:41:25.298Z,93550.63
2022-09-23T16:43:53.773Z,93555.38
2022-09-23T16:46:24.079Z,93545.59
2022-09-23T16:48:53.119Z,93553.22
2022-09-23T16:51:23.990Z,93560.25
2022-09-23T16:53:51.765Z,93554.56
2022-09-23T16:56:27.277Z,93559.84
2022-09-23T16:58:57.150Z,93567.66
2022-09-23T17:01:46.365Z,93567.59
2022-09-23T17:04:15.968Z,93565.06
2022-09-23T17:06:50.643Z,93572.53
2022-09-23T17:09:20.976Z,93583.03
2022-09-23T17:12:02.412Z,93585.44
2022-09-23T17:14:34.789Z,93590.94
2022-09-23T17:17:02.119Z,93595.94
2022-09-23T17:19:29.859Z,93598.63
2022-09-23T17:21:57.174Z,93602.28
2022-09-23T17:24:24.613Z,93602.28
2022-09-23T17:26:53.409Z,93607.22
2022-09-23T17:29:21.004Z,93605.69
2022-09-23T17:31:48.509Z,93614.59
2022-09-23T17:34:18.935Z,93620.44
2022-09-23T17:36:46.324Z,93614.13
2022-09-23T17:39:14.134Z,93617.84
2022-09-23T17:41:41.896Z,93618.72
2022-09-23T17:44:12.173Z,93624.50
2022-09-23T17:46:39.496Z,93628.34
2022-09-23T17:49:08.567Z,93629.00
2022-09-23T17:51:36.322Z,93626.69
2022-09-23T17:54:03.840Z,93629.69
2022-09-23T17:56:31.581Z,93629.78
2022-09-23T17:59:03.016Z,93630.47
2022-09-23T18:01:30.896Z,93633.09
2022-09-23T18:04:00.915Z,93628.19
2022-09-23T18:06:33.698Z,93634.78
2022-09-23T18:09:06.087Z,93635.16
2022-09-23T18:11:36.192Z,93636.22
2022-09-23T18:14:07.011Z,93640.09
2022-09-23T18:16:37.729Z,93639.81
2022-09-23T18:19:07.230Z,93635.25
2022-09-23T18:21:35.675Z,93639.69
2022-09-23T18:24:28.147Z,93643.09
2022-09-23T18:26:51.172Z,93649.34
2022-09-23T18:29:19.806Z,93648.53
2022-09-23T18:31:47.582Z,93644.56
2022-09-23T18:34:20.729Z,93649.00
2022-09-23T18:36:48.210Z,93653.88
2022-09-23T18:39:15.931Z,93658.75
2022-09-23T18:41:43.326Z,93658.06
2022-09-23T18:44:11.316Z,93662.72
2022-09-23T18:46:39.941Z,93661.81
2022-09-23T18:49:26.016Z,93660.56
2022-09-23T18:51:58.606Z,93659.19
2022-09-23T18:54:28.937Z,93659.63
2022-09-23T18:56:56.972Z,93654.38
2022-09-23T18:59:30.001Z,93664.56
2022-09-23T19:01:58.597Z,93671.53
2022-09-23T19:04:27.460Z,93674.03
2022-09-23T19:06:56.817Z,93682.06
2022-09-23T19:09:24.897Z,93673.34
2022-09-23T19:11:52.829Z,93679.66
2022-09-23T19:14:20.446Z,93686.38
2022-09-23T19:16:49.467Z,93678.81
2022-09-23T19:19:16.957Z,93686.88
2022-09-23T19:21:44.365Z,93683.69
2022-09-23T19:24:16.304Z,93689.66
2022-09-23T19:26:44.455Z,93693.34
2022-09-23T19:29:15.827Z,93697.75
2022-09-23T19:31:43.572Z,93697.13
2022-09-23T19:34:20.158Z,93695.47
2022-09-23T19:36:47.944Z,93698.22
2022-09-23T19:39:17.503Z,93697.06
2022-09-23T19:41:45.489Z,93705.28
2022-09-23T19:44:13.516Z,93706.53
2022-09-23T19:46:44.628Z,93704.03
2022-09-23T19:49:12.288Z,93701.78
2022-09-23T19:51:40.329Z,93708.38
2022-09-23T19:54:09.383Z,93705.66
2022-09-23T19:56:36.955Z,93703.28
2022-09-23T19:59:07.407Z,93712.94
2022-09-23T20:01:35.860Z,93707.13
2022-09-23T20:04:04.580Z,93707.63
2022-09-23T20:06:34.247Z,93709.09
2022-09-23T20:09:02.071Z,93711.78
2022-09-23T20:11:30.427Z,93719.00
2022-09-23T20:14:01.918Z,93715.50
2022-09-23T20:16:35.791Z,93709.91
2022-09-23T20:19:05.088Z,93713.81
2022-09-23T20:21:33.958Z,93709.19
2022-09-23T20:24:02.179Z,93710.94
2022-09-23T20:26:47.975Z,93709.34
2022-09-23T20:29:15.756Z,93716.47
2022-09-23T20:31:43.662Z,93703.00
2022-09-23T20:34:12.476Z,93714.63
2022-09-23T20:36:41.510Z,93712.50
2022-09-23T20:39:10.084Z,93715.84
2022-09-23T20:41:39.421Z,93713.94
2022-09-23T20:44:10.485Z,93718.50
2022-09-23T20:46:39.075Z,93709.81
2022-09-23T20:49:08.962Z,93720.81
2022-09-23T20:51:37.720Z,93727.03
2022-09-23T20:54:05.087Z,93727.91
2022-09-23T20:56:32.835Z,93730.28
2022-09-23T20:59:01.404Z,93731.91
2022-09-23T21:01:28.904Z,93737.34
2022-09-23T21:03:56.714Z,93733.56
2022-09-23T21:06:25.353Z,93740.53
2022-09-23T21:08:53.904Z,93736.28
2022-09-23T21:11:22.151Z,93740.31
2022-09-23T21:13:51.459Z,93750.78
2022-09-23T21:16:22.809Z,93742.00
2022-09-23T21:18:51.933Z,93741.19
2022-09-23T21:21:22.433Z,93738.59
2022-09-23T21:23:51.401Z,93746.22
2022-09-23T21:26:25.595Z,93752.88
2022-09-23T21:28:57.157Z,93750.06
2022-09-23T21:31:27.425Z,93748.88
2022-09-23T21:33:57.218Z,93744.25
2022-09-23T21:36:27.613Z,93746.28
2022-09-23T21:38:58.338Z,93750.03
2022-09-23T21:41:26.876Z,93743.03
2022-09-23T21:43:56.453Z,93739.62
2022-09-23T21:46:25.622Z,93739.25
2022-09-23T21:48:55.123Z,93739.66
2022-09-23T21:51:25.655Z,93746.03
2022-09-23T21:53:55.812Z,93745.28
2022-09-23T21:56:27.361Z,93746.41
2022-09-23T21:58:58.398Z,93754.41
2022-09-23T22:01:33.572Z,93744.81
2022-09-23T22:04:05.382Z,93751.59
2022-09-23T22:06:33.425Z,93748.03
2022-09-23T22:09:03.958Z,93745.66
2022-09-23T22:11:51.920Z,93746.66
2022-09-23T22:14:23.488Z,93755.81
2022-09-23T22:16:50.820Z,93748.22
2022-09-23T22:19:18.085Z,93742.44
2022-09-23T22:21:45.814Z,93747.59
2022-09-23T22:24:13.503Z,93748.84
2022-09-23T22:26:43.720Z,93753.78
2022-09-23T22:29:32.924Z,93747.97
2022-09-23T22:32:20.327Z,93752.38
2022-09-23T22:34:50.981Z,93759.16
2022-09-23T22:37:28.208Z,93754.97
2022-09-23T22:39:57.061Z,93757.59
2022-09-23T22:42:24.541Z,93758.56
2022-09-23T22:44:52.622Z,93761.34
2022-09-23T22:47:20.756Z,93757.97
2022-09-23T22:49:48.626Z,93760.34
2022-09-23T22:52:21.275Z,93756.09
2022-09-23T22:54:49.800Z,93754.12
2022-09-23T22:57:17.492Z,93762.28
2022-09-23T22:59:48.248Z,93764.66
2022-09-23T23:02:18.529Z,93757.34
2022-09-23T23:04:49.569Z,93758.09
2022-09-23T23:07:24.369Z,93755.25
2022-09-23T23:09:52.498Z,93755.31
2022-09-23T23:12:21.472Z,93758.37
2022-09-23T23:14:49.500Z,93746.38
2022-09-23T23:17:17.451Z,93756.13
2022-09-23T23:19:45.273Z,93751.69
2022-09-23T23:22:12.583Z,93746.53
2022-09-23T23:24:40.070Z,93755.09
2022-09-23T23:27:07.776Z,93756.13
2022-09-23T23:29:35.123Z,93756.38
2022-09-23T23:32:02.716Z,93755.53
2022-09-23T23:34:30.480Z,93756.03
2022-09-23T23:36:57.892Z,93754.84
2022-09-23T23:39:25.750Z,93755.81
2022-09-23T23:41:57.958Z,93756.81
2022-09-23T23:44:26.630Z,93749.47
2022-09-23T23:46:55.266Z,93748.03
2022-09-23T23:49:23.113Z,93745.00
2022-09-23T23:51:50.454Z,93751.44
2022-09-23T23:54:18.123Z,93747.88
2022-09-23T23:56:45.684Z,93739.62
2022-09-23T23:59:13.625Z,93743.16
